Richmond, Kansas
Current Conditions -  °F | °C
As of 7:53 AM on Sunday 25 Jan 2015 (Local Time) from KIXD Reporting Station
Light Rain Light Rain  
Wind Chill: 26°   Ceiling: 2100
Heat Index: 37°   Visibility: 8mi
Dew Point: 34°   Wind: 22mph
Humidity: 89%   Direction: 320°NW
Pressure: 29.73"   Gusts: 33mph
Location:  38.4°N, 95.25°W
Report Text: KIXD 251353Z 32019G29KT 8SM -RA FEW015 OVC021 03/01 A2973 RMK AO2 PK WND 31031/1303 SNB26E35 SLP070 P0001 T00280011
Loading
Personal Weather Stations






























Interactive Weather Map New forecast layout! Learn more

10-Day Weather Forecast

Advertisements
Track Severe Weather on mobile